sensor_id;sensor_type;location;lat;lon;timestamp;P1;durP1;ratioP1;P2;durP2;ratioP2
10116;SDS011;5098;48.792;9.012;2023-02-13T00:02:35;19.10;;;11.30;;
10116;SDS011;5098;48.792;9.012;2023-02-13T00:05:03;16.35;;;10.00;;
10116;SDS011;5098;48.792;9.012;2023-02-13T00:07:30;21.65;;;12.77;;
10116;SDS011;5098;48.792;9.012;2023-02-13T00:09:56;17.70;;;12.55;;
10116;SDS011;5098;48.792;9.012;2023-02-13T00:12:22;18.77;;;10.70;;
10116;SDS011;5098;48.792;9.012;2023-02-13T00:14:49;21.20;;;11.90;;
10116;SDS011;5098;48.792;9.012;2023-02-13T00:17:15;15.13;;;10.63;;
10116;SDS011;5098;48.792;9.012;2023-02-13T00:19:41;15.88;;;11.15;;
10116;SDS011;5098;48.792;9.012;2023-02-13T00:22:07;16.30;;;10.60;;
10116;SDS011;5098;48.792;9.012;2023-02-13T00:24:33;24.80;;;15.43;;
10116;SDS011;5098;48.792;9.012;2023-02-13T00:26:59;30.25;;;19.90;;
10116;SDS011;5098;48.792;9.012;2023-02-13T00:29:26;18.02;;;11.25;;
10116;SDS011;5098;48.792;9.012;2023-02-13T00:31:52;18.55;;;11.65;;
10116;SDS011;5098;48.792;9.012;2023-02-13T00:34:18;46.10;;;25.58;;
10116;SDS011;5098;48.792;9.012;2023-02-13T00:36:44;28.27;;;17.45;;
10116;SDS011;5098;48.792;9.012;2023-02-13T00:39:10;15.70;;;10.02;;
10116;SDS011;5098;48.792;9.012;2023-02-13T00:41:37;16.00;;;9.52;;
10116;SDS011;5098;48.792;9.012;2023-02-13T00:44:03;14.73;;;9.90;;
10116;SDS011;5098;48.792;9.012;2023-02-13T00:46:29;14.32;;;9.50;;
10116;SDS011;5098;48.792;9.012;2023-02-13T00:48:55;16.25;;;10.25;;
10116;SDS011;5098;48.792;9.012;2023-02-13T00:51:21;18.55;;;10.55;;
10116;SDS011;5098;48.792;9.012;2023-02-13T00:53:47;15.55;;;10.43;;
10116;SDS011;5098;48.792;9.012;2023-02-13T00:56:13;12.50;;;9.20;;
10116;SDS011;5098;48.792;9.012;2023-02-13T00:58:39;14.60;;;10.50;;
10116;SDS011;5098;48.792;9.012;2023-02-13T01:01:05;12.95;;;9.18;;
10116;SDS011;5098;48.792;9.012;2023-02-13T01:03:31;16.20;;;10.27;;
10116;SDS011;5098;48.792;9.012;2023-02-13T01:05:57;14.63;;;9.95;;
10116;SDS011;5098;48.792;9.012;2023-02-13T01:08:23;16.00;;;9.68;;
10116;SDS011;5098;48.792;9.012;2023-02-13T01:10:52;13.55;;;8.23;;
10116;SDS011;5098;48.792;9.012;2023-02-13T01:13:18;13.85;;;8.73;;
10116;SDS011;5098;48.792;9.012;2023-02-13T01:15:44;16.20;;;8.40;;
10116;SDS011;5098;48.792;9.012;2023-02-13T01:18:18;16.13;;;10.00;;
10116;SDS011;5098;48.792;9.012;2023-02-13T01:20:44;12.43;;;9.18;;
10116;SDS011;5098;48.792;9.012;2023-02-13T01:23:11;12.63;;;8.93;;
10116;SDS011;5098;48.792;9.012;2023-02-13T01:25:40;12.40;;;8.55;;
10116;SDS011;5098;48.792;9.012;2023-02-13T01:28:07;13.95;;;8.27;;
10116;SDS011;5098;48.792;9.012;2023-02-13T01:30:33;11.80;;;9.15;;
10116;SDS011;5098;48.792;9.012;2023-02-13T01:32:59;13.70;;;8.60;;
10116;SDS011;5098;48.792;9.012;2023-02-13T01:35:25;16.02;;;10.23;;
10116;SDS011;5098;48.792;9.012;2023-02-13T01:37:51;14.82;;;8.80;;
10116;SDS011;5098;48.792;9.012;2023-02-13T01:40:17;13.85;;;9.48;;
10116;SDS011;5098;48.792;9.012;2023-02-13T01:42:44;16.60;;;9.48;;
10116;SDS011;5098;48.792;9.012;2023-02-13T01:45:23;16.70;;;10.43;;
10116;SDS011;5098;48.792;9.012;2023-02-13T01:47:51;15.95;;;10.13;;
10116;SDS011;5098;48.792;9.012;2023-02-13T01:50:23;18.05;;;11.70;;
10116;SDS011;5098;48.792;9.012;2023-02-13T01:52:51;14.63;;;10.38;;
10116;SDS011;5098;48.792;9.012;2023-02-13T01:55:19;17.05;;;11.05;;
10116;SDS011;5098;48.792;9.012;2023-02-13T01:57:46;17.95;;;11.00;;
10116;SDS011;5098;48.792;9.012;2023-02-13T02:00:14;13.85;;;9.50;;
10116;SDS011;5098;48.792;9.012;2023-02-13T02:02:46;11.65;;;9.15;;
10116;SDS011;5098;48.792;9.012;2023-02-13T02:05:13;16.52;;;10.15;;
10116;SDS011;5098;48.792;9.012;2023-02-13T02:07:41;18.25;;;10.85;;
10116;SDS011;5098;48.792;9.012;2023-02-13T02:10:08;15.18;;;10.00;;
10116;SDS011;5098;48.792;9.012;2023-02-13T02:15:02;16.70;;;11.65;;
10116;SDS011;5098;48.792;9.012;2023-02-13T02:17:29;16.83;;;9.93;;
10116;SDS011;5098;48.792;9.012;2023-02-13T02:33:15;19.52;;;11.40;;
10116;SDS011;5098;48.792;9.012;2023-02-13T02:35:45;19.60;;;10.90;;
10116;SDS011;5098;48.792;9.012;2023-02-13T02:41:04;18.38;;;11.18;;
10116;SDS011;5098;48.792;9.012;2023-02-13T02:46:09;24.17;;;12.20;;
10116;SDS011;5098;48.792;9.012;2023-02-13T02:51:26;19.65;;;12.73;;
10116;SDS011;5098;48.792;9.012;2023-02-13T02:54:12;20.42;;;11.57;;
10116;SDS011;5098;48.792;9.012;2023-02-13T02:57:00;16.95;;;11.52;;
10116;SDS011;5098;48.792;9.012;2023-02-13T02:59:28;15.30;;;10.25;;
10116;SDS011;5098;48.792;9.012;2023-02-13T03:02:13;18.23;;;10.82;;
10116;SDS011;5098;48.792;9.012;2023-02-13T03:04:59;17.55;;;11.70;;
10116;SDS011;5098;48.792;9.012;2023-02-13T03:08:02;14.45;;;10.63;;
10116;SDS011;5098;48.792;9.012;2023-02-13T03:10:30;26.45;;;12.18;;
10116;SDS011;5098;48.792;9.012;2023-02-13T03:13:17;17.50;;;11.98;;
10116;SDS011;5098;48.792;9.012;2023-02-13T03:15:55;20.27;;;11.70;;
10116;SDS011;5098;48.792;9.012;2023-02-13T03:18:42;18.48;;;11.82;;
10116;SDS011;5098;48.792;9.012;2023-02-13T03:24:27;19.55;;;12.48;;
10116;SDS011;5098;48.792;9.012;2023-02-13T03:27:08;19.48;;;12.15;;
10116;SDS011;5098;48.792;9.012;2023-02-13T03:32:33;20.30;;;11.73;;
10116;SDS011;5098;48.792;9.012;2023-02-13T03:38:02;20.25;;;12.45;;
10116;SDS011;5098;48.792;9.012;2023-02-13T03:40:36;18.65;;;12.05;;
10116;SDS011;5098;48.792;9.012;2023-02-13T03:43:25;23.35;;;14.10;;
10116;SDS011;5098;48.792;9.012;2023-02-13T03:45:52;23.52;;;12.48;;
10116;SDS011;5098;48.792;9.012;2023-02-13T03:48:19;21.10;;;12.70;;
10116;SDS011;5098;48.792;9.012;2023-02-13T03:51:04;25.10;;;14.18;;
10116;SDS011;5098;48.792;9.012;2023-02-13T03:53:32;20.50;;;12.50;;
10116;SDS011;5098;48.792;9.012;2023-02-13T03:55:59;22.95;;;13.88;;
10116;SDS011;5098;48.792;9.012;2023-02-13T03:58:47;21.23;;;12.70;;
10116;SDS011;5098;48.792;9.012;2023-02-13T04:01:33;25.45;;;13.70;;
10116;SDS011;5098;48.792;9.012;2023-02-13T04:04:08;24.15;;;13.75;;
10116;SDS011;5098;48.792;9.012;2023-02-13T04:06:39;27.63;;;14.77;;
10116;SDS011;5098;48.792;9.012;2023-02-13T04:09:06;24.45;;;14.45;;
10116;SDS011;5098;48.792;9.012;2023-02-13T04:11:46;22.85;;;14.13;;
10116;SDS011;5098;48.792;9.012;2023-02-13T04:14:18;23.20;;;12.90;;
10116;SDS011;5098;48.792;9.012;2023-02-13T04:16:46;23.70;;;14.05;;
10116;SDS011;5098;48.792;9.012;2023-02-13T04:19:14;26.35;;;14.60;;
10116;SDS011;5098;48.792;9.012;2023-02-13T04:21:41;21.27;;;13.27;;
10116;SDS011;5098;48.792;9.012;2023-02-13T04:24:07;26.60;;;13.60;;
10116;SDS011;5098;48.792;9.012;2023-02-13T04:26:34;26.38;;;14.60;;
10116;SDS011;5098;48.792;9.012;2023-02-13T04:29:01;25.77;;;14.57;;
10116;SDS011;5098;48.792;9.012;2023-02-13T04:31:27;25.85;;;13.20;;
10116;SDS011;5098;48.792;9.012;2023-02-13T04:33:53;17.95;;;12.50;;
10116;SDS011;5098;48.792;9.012;2023-02-13T04:36:19;24.13;;;13.70;;
10116;SDS011;5098;48.792;9.012;2023-02-13T04:38:45;25.58;;;15.10;;
10116;SDS011;5098;48.792;9.012;2023-02-13T04:41:11;24.90;;;14.82;;
10116;SDS011;5098;48.792;9.012;2023-02-13T04:43:37;27.52;;;15.82;;
10116;SDS011;5098;48.792;9.012;2023-02-13T04:46:03;28.48;;;16.52;;
10116;SDS011;5098;48.792;9.012;2023-02-13T04:48:29;28.35;;;16.38;;
10116;SDS011;5098;48.792;9.012;2023-02-13T04:50:56;26.33;;;14.55;;
10116;SDS011;5098;48.792;9.012;2023-02-13T04:53:22;24.65;;;14.40;;
10116;SDS011;5098;48.792;9.012;2023-02-13T04:55:48;31.08;;;16.52;;
10116;SDS011;5098;48.792;9.012;2023-02-13T04:58:14;29.65;;;15.43;;
10116;SDS011;5098;48.792;9.012;2023-02-13T05:00:40;27.95;;;15.32;;
10116;SDS011;5098;48.792;9.012;2023-02-13T05:03:06;27.30;;;16.80;;
10116;SDS011;5098;48.792;9.012;2023-02-13T05:05:33;33.75;;;18.23;;
10116;SDS011;5098;48.792;9.012;2023-02-13T05:07:59;35.10;;;20.17;;
10116;SDS011;5098;48.792;9.012;2023-02-13T05:10:26;38.28;;;19.38;;
10116;SDS011;5098;48.792;9.012;2023-02-13T05:12:52;40.67;;;17.90;;
10116;SDS011;5098;48.792;9.012;2023-02-13T05:15:18;30.40;;;18.95;;
10116;SDS011;5098;48.792;9.012;2023-02-13T05:17:45;39.45;;;17.27;;
10116;SDS011;5098;48.792;9.012;2023-02-13T05:20:11;30.63;;;17.92;;
10116;SDS011;5098;48.792;9.012;2023-02-13T05:22:42;27.38;;;16.23;;
10116;SDS011;5098;48.792;9.012;2023-02-13T05:25:27;31.63;;;17.20;;
10116;SDS011;5098;48.792;9.012;2023-02-13T05:27:53;33.33;;;17.70;;
10116;SDS011;5098;48.792;9.012;2023-02-13T05:30:19;32.75;;;16.27;;
10116;SDS011;5098;48.792;9.012;2023-02-13T05:32:45;31.38;;;16.02;;
10116;SDS011;5098;48.792;9.012;2023-02-13T05:35:11;32.47;;;19.35;;
10116;SDS011;5098;48.792;9.012;2023-02-13T05:37:37;35.22;;;18.70;;
10116;SDS011;5098;48.792;9.012;2023-02-13T05:40:03;31.95;;;18.52;;
10116;SDS011;5098;48.792;9.012;2023-02-13T05:42:29;35.50;;;18.00;;
10116;SDS011;5098;48.792;9.012;2023-02-13T05:44:55;29.90;;;16.67;;
10116;SDS011;5098;48.792;9.012;2023-02-13T05:47:21;32.42;;;17.98;;
10116;SDS011;5098;48.792;9.012;2023-02-13T05:49:47;32.30;;;17.75;;
10116;SDS011;5098;48.792;9.012;2023-02-13T05:52:13;34.05;;;18.63;;
10116;SDS011;5098;48.792;9.012;2023-02-13T05:54:39;29.60;;;16.58;;
10116;SDS011;5098;48.792;9.012;2023-02-13T05:57:05;34.85;;;17.45;;
10116;SDS011;5098;48.792;9.012;2023-02-13T05:59:31;28.33;;;16.30;;
10116;SDS011;5098;48.792;9.012;2023-02-13T06:01:58;38.75;;;20.73;;
10116;SDS011;5098;48.792;9.012;2023-02-13T06:04:24;35.88;;;19.70;;
10116;SDS011;5098;48.792;9.012;2023-02-13T06:06:50;34.55;;;20.20;;
10116;SDS011;5098;48.792;9.012;2023-02-13T06:09:16;31.85;;;17.63;;
10116;SDS011;5098;48.792;9.012;2023-02-13T06:11:42;33.15;;;18.83;;
10116;SDS011;5098;48.792;9.012;2023-02-13T06:14:08;34.50;;;20.67;;
10116;SDS011;5098;48.792;9.012;2023-02-13T06:16:34;31.63;;;19.48;;
10116;SDS011;5098;48.792;9.012;2023-02-13T06:19:00;34.53;;;18.48;;
10116;SDS011;5098;48.792;9.012;2023-02-13T06:21:26;43.08;;;19.50;;
10116;SDS011;5098;48.792;9.012;2023-02-13T06:23:52;35.40;;;18.50;;
10116;SDS011;5098;48.792;9.012;2023-02-13T06:26:18;33.83;;;18.85;;
10116;SDS011;5098;48.792;9.012;2023-02-13T06:28:45;31.27;;;20.38;;
10116;SDS011;5098;48.792;9.012;2023-02-13T06:31:11;35.53;;;23.90;;
10116;SDS011;5098;48.792;9.012;2023-02-13T06:33:37;32.88;;;18.48;;
10116;SDS011;5098;48.792;9.012;2023-02-13T06:36:03;32.35;;;17.92;;
10116;SDS011;5098;48.792;9.012;2023-02-13T06:38:29;36.72;;;17.80;;
10116;SDS011;5098;48.792;9.012;2023-02-13T06:40:58;34.67;;;19.00;;
10116;SDS011;5098;48.792;9.012;2023-02-13T06:43:24;34.88;;;21.02;;
10116;SDS011;5098;48.792;9.012;2023-02-13T06:45:51;33.88;;;19.80;;
10116;SDS011;5098;48.792;9.012;2023-02-13T06:48:18;40.25;;;21.13;;
10116;SDS011;5098;48.792;9.012;2023-02-13T06:50:44;38.33;;;21.83;;
10116;SDS011;5098;48.792;9.012;2023-02-13T06:53:10;40.85;;;25.48;;
10116;SDS011;5098;48.792;9.012;2023-02-13T06:55:36;37.85;;;21.08;;
10116;SDS011;5098;48.792;9.012;2023-02-13T06:58:05;36.80;;;19.70;;
10116;SDS011;5098;48.792;9.012;2023-02-13T07:00:31;37.35;;;20.20;;
10116;SDS011;5098;48.792;9.012;2023-02-13T07:03:01;35.53;;;19.33;;
10116;SDS011;5098;48.792;9.012;2023-02-13T07:05:27;35.75;;;18.30;;
10116;SDS011;5098;48.792;9.012;2023-02-13T07:07:54;32.60;;;18.48;;
10116;SDS011;5098;48.792;9.012;2023-02-13T07:10:20;38.13;;;18.50;;
10116;SDS011;5098;48.792;9.012;2023-02-13T07:12:46;29.15;;;16.58;;
10116;SDS011;5098;48.792;9.012;2023-02-13T07:15:12;26.80;;;16.40;;
10116;SDS011;5098;48.792;9.012;2023-02-13T07:17:38;31.73;;;15.50;;
10116;SDS011;5098;48.792;9.012;2023-02-13T07:20:04;28.65;;;16.45;;
10116;SDS011;5098;48.792;9.012;2023-02-13T07:22:31;23.23;;;14.90;;
10116;SDS011;5098;48.792;9.012;2023-02-13T07:24:58;21.13;;;14.80;;
10116;SDS011;5098;48.792;9.012;2023-02-13T07:27:24;23.70;;;14.85;;
10116;SDS011;5098;48.792;9.012;2023-02-13T07:29:53;21.27;;;13.75;;
10116;SDS011;5098;48.792;9.012;2023-02-13T07:32:19;20.13;;;14.02;;
10116;SDS011;5098;48.792;9.012;2023-02-13T07:34:45;19.92;;;12.85;;
10116;SDS011;5098;48.792;9.012;2023-02-13T07:37:11;21.33;;;14.57;;
10116;SDS011;5098;48.792;9.012;2023-02-13T07:39:37;21.88;;;14.02;;
10116;SDS011;5098;48.792;9.012;2023-02-13T07:42:04;22.75;;;14.90;;
10116;SDS011;5098;48.792;9.012;2023-02-13T07:44:30;19.27;;;14.63;;
10116;SDS011;5098;48.792;9.012;2023-02-13T07:46:56;22.30;;;14.90;;
10116;SDS011;5098;48.792;9.012;2023-02-13T07:49:24;23.65;;;15.50;;
10116;SDS011;5098;48.792;9.012;2023-02-13T07:51:50;22.92;;;15.10;;
10116;SDS011;5098;48.792;9.012;2023-02-13T07:54:16;25.07;;;15.37;;
10116;SDS011;5098;48.792;9.012;2023-02-13T07:56:42;18.47;;;13.27;;
10116;SDS011;5098;48.792;9.012;2023-02-13T07:59:09;20.93;;;14.90;;
10116;SDS011;5098;48.792;9.012;2023-02-13T08:01:35;25.50;;;14.87;;
10116;SDS011;5098;48.792;9.012;2023-02-13T08:04:01;19.60;;;15.20;;
10116;SDS011;5098;48.792;9.012;2023-02-13T08:06:27;17.90;;;14.07;;
10116;SDS011;5098;48.792;9.012;2023-02-13T08:08:53;20.13;;;14.10;;
10116;SDS011;5098;48.792;9.012;2023-02-13T08:11:39;22.50;;;16.03;;
10116;SDS011;5098;48.792;9.012;2023-02-13T08:14:17;21.73;;;16.20;;
10116;SDS011;5098;48.792;9.012;2023-02-13T08:16:43;22.80;;;14.73;;
10116;SDS011;5098;48.792;9.012;2023-02-13T08:19:09;20.10;;;13.67;;
10116;SDS011;5098;48.792;9.012;2023-02-13T08:21:35;18.17;;;12.73;;
10116;SDS011;5098;48.792;9.012;2023-02-13T08:24:03;15.53;;;12.40;;
10116;SDS011;5098;48.792;9.012;2023-02-13T08:26:32;17.97;;;13.10;;
10116;SDS011;5098;48.792;9.012;2023-02-13T08:28:58;16.40;;;12.53;;
10116;SDS011;5098;48.792;9.012;2023-02-13T08:31:25;16.97;;;13.63;;
10116;SDS011;5098;48.792;9.012;2023-02-13T08:33:51;17.10;;;13.10;;
10116;SDS011;5098;48.792;9.012;2023-02-13T08:36:17;19.07;;;14.80;;
10116;SDS011;5098;48.792;9.012;2023-02-13T08:38:45;16.17;;;14.40;;
10116;SDS011;5098;48.792;9.012;2023-02-13T08:41:11;15.77;;;12.57;;
10116;SDS011;5098;48.792;9.012;2023-02-13T08:43:38;19.67;;;14.63;;
10116;SDS011;5098;48.792;9.012;2023-02-13T08:46:04;16.43;;;13.40;;
10116;SDS011;5098;48.792;9.012;2023-02-13T08:48:30;18.67;;;12.60;;
10116;SDS011;5098;48.792;9.012;2023-02-13T08:50:56;15.03;;;12.80;;
10116;SDS011;5098;48.792;9.012;2023-02-13T08:53:22;18.40;;;13.50;;
10116;SDS011;5098;48.792;9.012;2023-02-13T08:55:52;20.90;;;14.43;;
10116;SDS011;5098;48.792;9.012;2023-02-13T08:58:18;19.30;;;13.53;;
10116;SDS011;5098;48.792;9.012;2023-02-13T09:00:44;15.20;;;13.30;;
10116;SDS011;5098;48.792;9.012;2023-02-13T09:03:10;17.10;;;14.47;;
10116;SDS011;5098;48.792;9.012;2023-02-13T09:05:36;16.53;;;14.40;;
10116;SDS011;5098;48.792;9.012;2023-02-13T09:08:03;16.47;;;14.77;;
10116;SDS011;5098;48.792;9.012;2023-02-13T09:10:29;19.90;;;14.90;;
10116;SDS011;5098;48.792;9.012;2023-02-13T09:12:55;15.77;;;13.53;;
10116;SDS011;5098;48.792;9.012;2023-02-13T09:15:22;14.27;;;12.57;;
10116;SDS011;5098;48.792;9.012;2023-02-13T09:17:48;13.83;;;11.63;;
10116;SDS011;5098;48.792;9.012;2023-02-13T09:20:14;13.40;;;12.00;;
10116;SDS011;5098;48.792;9.012;2023-02-13T09:22:40;13.00;;;11.30;;
10116;SDS011;5098;48.792;9.012;2023-02-13T09:25:07;12.00;;;9.90;;
10116;SDS011;5098;48.792;9.012;2023-02-13T09:27:33;14.77;;;10.40;;
10116;SDS011;5098;48.792;9.012;2023-02-13T09:30:00;13.50;;;10.97;;
10116;SDS011;5098;48.792;9.012;2023-02-13T09:32:26;14.17;;;10.50;;
10116;SDS011;5098;48.792;9.012;2023-02-13T09:34:52;13.87;;;11.47;;
10116;SDS011;5098;48.792;9.012;2023-02-13T09:37:18;14.00;;;11.33;;
10116;SDS011;5098;48.792;9.012;2023-02-13T09:39:44;12.83;;;10.07;;
10116;SDS011;5098;48.792;9.012;2023-02-13T09:42:18;12.70;;;10.33;;
10116;SDS011;5098;48.792;9.012;2023-02-13T09:44:47;11.53;;;7.57;;
10116;SDS011;5098;48.792;9.012;2023-02-13T09:49:46;10.97;;;8.90;;
10116;SDS011;5098;48.792;9.012;2023-02-13T09:52:13;9.77;;;8.73;;
10116;SDS011;5098;48.792;9.012;2023-02-13T09:54:39;12.03;;;8.83;;
10116;SDS011;5098;48.792;9.012;2023-02-13T10:05:08;10.47;;;9.00;;
10116;SDS011;5098;48.792;9.012;2023-02-13T10:12:35;11.13;;;9.40;;
10116;SDS011;5098;48.792;9.012;2023-02-13T10:17:43;10.63;;;9.53;;
10116;SDS011;5098;48.792;9.012;2023-02-13T10:20:32;10.30;;;9.20;;
10116;SDS011;5098;48.792;9.012;2023-02-13T10:25:45;11.60;;;9.10;;
10116;SDS011;5098;48.792;9.012;2023-02-13T10:28:14;10.23;;;9.20;;
10116;SDS011;5098;48.792;9.012;2023-02-13T10:30:47;10.13;;;9.10;;
10116;SDS011;5098;48.792;9.012;2023-02-13T10:38:14;9.70;;;8.47;;
10116;SDS011;5098;48.792;9.012;2023-02-13T10:40:43;11.10;;;8.73;;
10116;SDS011;5098;48.792;9.012;2023-02-13T10:43:11;10.77;;;9.67;;
10116;SDS011;5098;48.792;9.012;2023-02-13T10:45:44;9.63;;;8.63;;
10116;SDS011;5098;48.792;9.012;2023-02-13T10:53:22;9.50;;;8.50;;
10116;SDS011;5098;48.792;9.012;2023-02-13T10:58:38;12.33;;;9.80;;
10116;SDS011;5098;48.792;9.012;2023-02-13T11:03:38;11.20;;;9.00;;
10116;SDS011;5098;48.792;9.012;2023-02-13T11:06:04;10.77;;;9.20;;
10116;SDS011;5098;48.792;9.012;2023-02-13T11:08:33;10.67;;;8.63;;
10116;SDS011;5098;48.792;9.012;2023-02-13T11:10:59;9.67;;;8.67;;
10116;SDS011;5098;48.792;9.012;2023-02-13T11:13:27;10.33;;;8.33;;
10116;SDS011;5098;48.792;9.012;2023-02-13T11:16:03;11.40;;;8.37;;
10116;SDS011;5098;48.792;9.012;2023-02-13T11:18:31;8.73;;;7.83;;
10116;SDS011;5098;48.792;9.012;2023-02-13T11:20:59;8.77;;;7.97;;
10116;SDS011;5098;48.792;9.012;2023-02-13T11:23:32;8.57;;;7.63;;
10116;SDS011;5098;48.792;9.012;2023-02-13T11:26:04;10.23;;;8.83;;
10116;SDS011;5098;48.792;9.012;2023-02-13T11:31:27;9.63;;;8.70;;
10116;SDS011;5098;48.792;9.012;2023-02-13T11:33:54;8.83;;;7.93;;
10116;SDS011;5098;48.792;9.012;2023-02-13T11:36:25;9.60;;;8.63;;
10116;SDS011;5098;48.792;9.012;2023-02-13T11:38:58;8.43;;;7.53;;
10116;SDS011;5098;48.792;9.012;2023-02-13T11:41:24;8.37;;;7.57;;
10116;SDS011;5098;48.792;9.012;2023-02-13T11:46:25;8.60;;;7.63;;
10116;SDS011;5098;48.792;9.012;2023-02-13T11:49:01;8.90;;;7.43;;
10116;SDS011;5098;48.792;9.012;2023-02-13T11:51:41;8.17;;;7.30;;
10116;SDS011;5098;48.792;9.012;2023-02-13T11:56:53;14.23;;;10.00;;
10116;SDS011;5098;48.792;9.012;2023-02-13T11:59:23;11.60;;;10.43;;
10116;SDS011;5098;48.792;9.012;2023-02-13T12:02:07;11.60;;;10.40;;
10116;SDS011;5098;48.792;9.012;2023-02-13T12:04:37;11.27;;;10.13;;
10116;SDS011;5098;48.792;9.012;2023-02-13T12:07:05;11.43;;;10.43;;
10116;SDS011;5098;48.792;9.012;2023-02-13T12:09:35;11.63;;;10.53;;
10116;SDS011;5098;48.792;9.012;2023-02-13T12:12:02;11.80;;;10.70;;
10116;SDS011;5098;48.792;9.012;2023-02-13T12:14:30;12.40;;;11.20;;
10116;SDS011;5098;48.792;9.012;2023-02-13T12:16:59;12.13;;;11.03;;
10116;SDS011;5098;48.792;9.012;2023-02-13T12:22:13;12.20;;;11.00;;
10116;SDS011;5098;48.792;9.012;2023-02-13T12:27:42;11.20;;;10.00;;
10116;SDS011;5098;48.792;9.012;2023-02-13T12:32:39;9.30;;;8.40;;
10116;SDS011;5098;48.792;9.012;2023-02-13T12:40:29;11.50;;;10.30;;
10116;SDS011;5098;48.792;9.012;2023-02-13T12:51:07;12.50;;;9.73;;
10116;SDS011;5098;48.792;9.012;2023-02-13T13:01:19;9.90;;;8.93;;
10116;SDS011;5098;48.792;9.012;2023-02-13T13:03:57;11.30;;;9.00;;
10116;SDS011;5098;48.792;9.012;2023-02-13T13:06:36;9.17;;;7.30;;
10116;SDS011;5098;48.792;9.012;2023-02-13T13:14:23;9.63;;;7.93;;
10116;SDS011;5098;48.792;9.012;2023-02-13T13:19:34;6.90;;;6.20;;
10116;SDS011;5098;48.792;9.012;2023-02-13T13:27:03;6.87;;;5.77;;
10116;SDS011;5098;48.792;9.012;2023-02-13T13:29:41;9.97;;;5.80;;
10116;SDS011;5098;48.792;9.012;2023-02-13T13:32:10;7.73;;;4.90;;
10116;SDS011;5098;48.792;9.012;2023-02-13T13:34:38;6.30;;;5.53;;
10116;SDS011;5098;48.792;9.012;2023-02-13T13:37:13;9.27;;;6.60;;
10116;SDS011;5098;48.792;9.012;2023-02-13T13:45:08;6.20;;;5.50;;
10116;SDS011;5098;48.792;9.012;2023-02-13T13:47:44;6.03;;;5.43;;
10116;SDS011;5098;48.792;9.012;2023-02-13T13:50:16;8.13;;;5.87;;
10116;SDS011;5098;48.792;9.012;2023-02-13T13:53:03;6.47;;;5.83;;
10116;SDS011;5098;48.792;9.012;2023-02-13T14:03:35;7.17;;;6.57;;
10116;SDS011;5098;48.792;9.012;2023-02-13T14:06:03;7.20;;;6.50;;
10116;SDS011;5098;48.792;9.012;2023-02-13T14:09:34;8.50;;;6.50;;
10116;SDS011;5098;48.792;9.012;2023-02-13T14:13:58;7.70;;;7.00;;
10116;SDS011;5098;48.792;9.012;2023-02-13T14:19:02;7.50;;;6.67;;
10116;SDS011;5098;48.792;9.012;2023-02-13T14:21:28;7.97;;;7.17;;
10116;SDS011;5098;48.792;9.012;2023-02-13T14:23:54;8.20;;;7.40;;
10116;SDS011;5098;48.792;9.012;2023-02-13T14:26:29;8.67;;;7.87;;
10116;SDS011;5098;48.792;9.012;2023-02-13T14:28:57;8.00;;;7.20;;
10116;SDS011;5098;48.792;9.012;2023-02-13T14:34:00;10.00;;;8.17;;
10116;SDS011;5098;48.792;9.012;2023-02-13T14:36:34;9.43;;;8.53;;
10116;SDS011;5098;48.792;9.012;2023-02-13T14:39:02;13.60;;;8.40;;
10116;SDS011;5098;48.792;9.012;2023-02-13T14:44:56;9.83;;;8.93;;
10116;SDS011;5098;48.792;9.012;2023-02-13T14:49:38;9.70;;;8.70;;
10116;SDS011;5098;48.792;9.012;2023-02-13T14:52:07;11.97;;;8.97;;
10116;SDS011;5098;48.792;9.012;2023-02-13T14:54:46;12.03;;;9.33;;
10116;SDS011;5098;48.792;9.012;2023-02-13T14:57:17;10.23;;;9.17;;
10116;SDS011;5098;48.792;9.012;2023-02-13T14:59:46;13.40;;;9.70;;
10116;SDS011;5098;48.792;9.012;2023-02-13T15:04:48;13.57;;;9.27;;
10116;SDS011;5098;48.792;9.012;2023-02-13T15:07:17;11.17;;;9.17;;
10116;SDS011;5098;48.792;9.012;2023-02-13T15:09:46;11.13;;;9.60;;
10116;SDS011;5098;48.792;9.012;2023-02-13T15:12:26;11.57;;;10.33;;
10116;SDS011;5098;48.792;9.012;2023-02-13T15:14:53;11.40;;;10.20;;
10116;SDS011;5098;48.792;9.012;2023-02-13T15:17:23;12.30;;;11.00;;
10116;SDS011;5098;48.792;9.012;2023-02-13T15:19:52;13.87;;;9.93;;
10116;SDS011;5098;48.792;9.012;2023-02-13T15:24:56;11.97;;;10.60;;
10116;SDS011;5098;48.792;9.012;2023-02-13T15:27:44;15.23;;;11.27;;
10116;SDS011;5098;48.792;9.012;2023-02-13T15:30:25;11.37;;;10.03;;
10116;SDS011;5098;48.792;9.012;2023-02-13T15:32:52;13.93;;;9.70;;
10116;SDS011;5098;48.792;9.012;2023-02-13T15:35:23;15.00;;;10.17;;
10116;SDS011;5098;48.792;9.012;2023-02-13T15:37:49;13.13;;;10.70;;
10116;SDS011;5098;48.792;9.012;2023-02-13T15:40:18;13.43;;;11.40;;
10116;SDS011;5098;48.792;9.012;2023-02-13T15:42:47;14.10;;;10.73;;
10116;SDS011;5098;48.792;9.012;2023-02-13T15:45:15;13.50;;;10.90;;
10116;SDS011;5098;48.792;9.012;2023-02-13T15:47:42;15.20;;;12.53;;
10116;SDS011;5098;48.792;9.012;2023-02-13T15:50:13;11.67;;;10.40;;
10116;SDS011;5098;48.792;9.012;2023-02-13T15:52:39;18.23;;;11.60;;
10116;SDS011;5098;48.792;9.012;2023-02-13T15:55:14;12.73;;;10.13;;
10116;SDS011;5098;48.792;9.012;2023-02-13T15:57:42;13.00;;;11.30;;
10116;SDS011;5098;48.792;9.012;2023-02-13T16:00:12;12.83;;;11.10;;
10116;SDS011;5098;48.792;9.012;2023-02-13T16:02:47;12.37;;;10.10;;
10116;SDS011;5098;48.792;9.012;2023-02-13T16:05:14;13.23;;;11.20;;
10116;SDS011;5098;48.792;9.012;2023-02-13T16:07:47;13.30;;;11.00;;
10116;SDS011;5098;48.792;9.012;2023-02-13T16:10:14;12.63;;;10.70;;
10116;SDS011;5098;48.792;9.012;2023-02-13T16:12:45;12.83;;;11.00;;
10116;SDS011;5098;48.792;9.012;2023-02-13T16:15:12;12.87;;;10.20;;
10116;SDS011;5098;48.792;9.012;2023-02-13T16:17:40;17.63;;;10.20;;
10116;SDS011;5098;48.792;9.012;2023-02-13T16:27:58;16.40;;;11.33;;
10116;SDS011;5098;48.792;9.012;2023-02-13T16:33:11;13.10;;;10.97;;
10116;SDS011;5098;48.792;9.012;2023-02-13T16:35:56;12.97;;;10.67;;
10116;SDS011;5098;48.792;9.012;2023-02-13T16:38:27;12.60;;;11.30;;
10116;SDS011;5098;48.792;9.012;2023-02-13T16:40:55;14.60;;;11.30;;
10116;SDS011;5098;48.792;9.012;2023-02-13T16:43:38;14.87;;;10.73;;
10116;SDS011;5098;48.792;9.012;2023-02-13T16:48:43;13.23;;;10.40;;
10116;SDS011;5098;48.792;9.012;2023-02-13T16:51:10;15.60;;;11.97;;
10116;SDS011;5098;48.792;9.012;2023-02-13T16:53:36;13.67;;;11.77;;
10116;SDS011;5098;48.792;9.012;2023-02-13T16:56:05;13.67;;;11.77;;
10116;SDS011;5098;48.792;9.012;2023-02-13T16:58:32;14.10;;;11.77;;
10116;SDS011;5098;48.792;9.012;2023-02-13T17:00:58;14.93;;;10.97;;
10116;SDS011;5098;48.792;9.012;2023-02-13T17:03:25;14.60;;;11.60;;
10116;SDS011;5098;48.792;9.012;2023-02-13T17:05:51;14.43;;;11.47;;
10116;SDS011;5098;48.792;9.012;2023-02-13T17:08:19;12.37;;;10.43;;
10116;SDS011;5098;48.792;9.012;2023-02-13T17:11:02;13.27;;;10.93;;
10116;SDS011;5098;48.792;9.012;2023-02-13T17:13:28;13.40;;;10.63;;
10116;SDS011;5098;48.792;9.012;2023-02-13T17:15:54;14.73;;;11.73;;
10116;SDS011;5098;48.792;9.012;2023-02-13T17:18:20;17.67;;;11.70;;
10116;SDS011;5098;48.792;9.012;2023-02-13T17:20:46;18.63;;;11.77;;
10116;SDS011;5098;48.792;9.012;2023-02-13T17:23:14;16.53;;;12.10;;
10116;SDS011;5098;48.792;9.012;2023-02-13T17:25:41;12.87;;;10.50;;
10116;SDS011;5098;48.792;9.012;2023-02-13T17:28:16;16.23;;;10.87;;
10116;SDS011;5098;48.792;9.012;2023-02-13T17:30:43;16.52;;;10.90;;
10116;SDS011;5098;48.792;9.012;2023-02-13T17:33:13;14.10;;;9.80;;
10116;SDS011;5098;48.792;9.012;2023-02-13T17:35:41;14.60;;;11.40;;
10116;SDS011;5098;48.792;9.012;2023-02-13T17:38:08;14.43;;;10.70;;